Time;durP1;ratioP1;P1;durP2;ratioP2;P2;SDS_P1;SDS_P2;PMS_P1;PMS_P2;Temp;Humidity;BMP_temperature;BMP_pressure;BME280_temperature;BME280_humidity;BME280_pressure;Samples;Min_cycle;Max_cycle;Signal;HPM_P1;HPM_P2
2020/12/24 00:01:30;;;;;;;8.70;6.93;;;9.60;99.90;;;;;;5050962;28;20444;-66
2020/12/24 00:03:56;;;;;;;7.70;7.20;;;9.50;99.90;;;;;;5051175;28;20803;-66
2020/12/24 00:06:22;;;;;;;7.03;6.73;;;9.50;99.90;;;;;;5051072;28;20522;-66
2020/12/24 00:08:48;;;;;;;7.77;6.80;;;9.40;99.90;;;;;;5050935;28;20444;-68
2020/12/24 00:11:14;;;;;;;6.67;6.07;;;9.40;99.90;;;;;;5050876;28;20451;-68
2020/12/24 00:13:42;;;;;;;7.50;6.80;;;9.30;99.90;;;;;;5051218;28;20451;-67
2020/12/24 00:16:08;;;;;;;6.90;6.50;;;9.30;99.90;;;;;;5051421;28;20486;-66
2020/12/24 00:18:34;;;;;;;9.00;6.47;;;9.20;99.90;;;;;;5054747;28;20440;-69
2020/12/24 00:21:00;;;;;;;7.37;6.90;;;9.20;99.90;;;;;;5054598;28;20440;-66
2020/12/24 00:23:27;;;;;;;7.00;6.30;;;9.20;99.90;;;;;;5054764;28;20448;-66
2020/12/24 00:25:54;;;;;;;6.10;5.90;;;9.20;99.90;;;;;;5054552;28;20472;-65
2020/12/24 00:28:20;;;;;;;6.90;6.50;;;9.20;99.90;;;;;;5054827;28;20455;-68
2020/12/24 00:30:48;;;;;;;5.93;5.60;;;9.20;99.90;;;;;;5054352;28;21064;-67
2020/12/24 00:33:14;;;;;;;6.80;5.83;;;9.30;99.90;;;;;;5054515;28;20444;-66
2020/12/24 00:35:41;;;;;;;9.10;7.07;;;9.30;99.90;;;;;;5054704;28;20467;-69
2020/12/24 00:38:07;;;;;;;6.73;6.33;;;9.30;99.90;;;;;;5054546;28;20501;-66
2020/12/24 00:40:33;;;;;;;6.53;6.23;;;9.40;99.90;;;;;;5054246;28;20870;-69
2020/12/24 00:43:00;;;;;;;7.53;6.70;;;9.40;99.90;;;;;;5054434;28;20502;-67
2020/12/24 00:45:26;;;;;;;7.50;6.30;;;9.40;99.90;;;;;;5054342;28;20468;-67
2020/12/24 00:47:53;;;;;;;8.20;6.60;;;9.40;99.90;;;;;;5054404;28;20440;-66
2020/12/24 00:50:19;;;;;;;7.10;6.63;;;9.40;99.90;;;;;;5053981;28;20537;-66
2020/12/24 00:52:45;;;;;;;7.53;6.77;;;9.40;99.90;;;;;;5054279;28;20440;-66
2020/12/24 00:55:12;;;;;;;6.83;6.43;;;9.40;99.90;;;;;;5054378;28;20440;-66
2020/12/24 00:57:38;;;;;;;11.30;7.17;;;9.40;99.90;;;;;;5054256;28;20469;-65
2020/12/24 01:00:08;;;;;;;7.63;6.70;;;9.40;99.90;;;;;;5053905;28;20450;-66
2020/12/24 01:02:34;;;;;;;8.47;7.57;;;9.40;99.90;;;;;;5054072;28;20872;-65
2020/12/24 01:05:03;;;;;;;10.50;7.50;;;9.50;99.90;;;;;;5053994;28;20448;-65
2020/12/24 01:07:29;;;;;;;7.60;7.07;;;9.50;99.90;;;;;;5053870;28;20440;-66
2020/12/24 01:09:56;;;;;;;9.47;7.00;;;9.50;99.90;;;;;;5053803;28;20484;-63
2020/12/24 01:12:22;;;;;;;7.57;6.63;;;9.50;99.90;;;;;;5053805;28;20440;-64
2020/12/24 01:14:48;;;;;;;7.50;6.90;;;9.50;99.90;;;;;;5053813;28;20831;-66
2020/12/24 01:17:14;;;;;;;7.60;7.20;;;9.60;99.90;;;;;;5053690;28;20884;-66
2020/12/24 01:19:41;;;;;;;7.80;7.17;;;9.50;99.90;;;;;;5053558;28;20947;-65
2020/12/24 01:22:08;;;;;;;10.40;7.83;;;9.50;99.90;;;;;;5053742;28;20796;-63
2020/12/24 01:24:34;;;;;;;8.73;7.90;;;9.50;99.90;;;;;;5053712;28;20440;-62
2020/12/24 01:27:00;;;;;;;12.87;9.53;;;9.50;99.90;;;;;;5053295;28;20483;-63
2020/12/24 01:29:26;;;;;;;7.50;7.10;;;9.40;99.90;;;;;;5052785;28;20514;-64
2020/12/24 01:31:53;;;;;;;9.27;8.27;;;9.40;99.90;;;;;;5053237;28;20849;-66
2020/12/24 01:34:19;;;;;;;8.23;7.43;;;9.40;99.90;;;;;;5053385;28;20821;-67
2020/12/24 01:36:46;;;;;;;10.83;7.50;;;9.30;99.90;;;;;;5053358;28;20467;-66
2020/12/24 01:39:13;;;;;;;10.47;9.30;;;9.30;99.90;;;;;;5053235;28;20946;-64
2020/12/24 01:41:40;;;;;;;8.47;7.60;;;9.30;99.90;;;;;;5053118;28;20444;-65
2020/12/24 01:44:06;;;;;;;8.03;7.33;;;9.40;99.90;;;;;;5053351;28;20930;-64
2020/12/24 01:46:33;;;;;;;9.47;7.80;;;9.40;99.90;;;;;;5053212;28;20471;-65
2020/12/24 01:48:59;;;;;;;13.30;9.00;;;9.50;99.90;;;;;;5053046;28;20443;-66
2020/12/24 01:51:27;;;;;;;10.03;7.90;;;9.50;99.90;;;;;;5052856;28;20440;-65
2020/12/24 01:53:55;;;;;;;10.90;8.00;;;9.50;99.90;;;;;;5052989;28;20455;-65
2020/12/24 01:56:22;;;;;;;9.30;8.40;;;9.50;99.90;;;;;;5052954;28;20464;-62
2020/12/24 01:58:50;;;;;;;9.30;8.50;;;9.60;99.90;;;;;;5053223;28;20440;-66
2020/12/24 02:01:16;;;;;;;11.73;8.07;;;9.60;99.90;;;;;;5052631;28;20436;-67
2020/12/24 02:03:42;;;;;;;8.60;8.03;;;9.70;99.90;;;;;;5052858;28;20441;-66
2020/12/24 02:06:09;;;;;;;8.63;8.33;;;9.70;99.90;;;;;;5053009;28;20517;-66
2020/12/24 02:08:35;;;;;;;9.93;9.07;;;9.70;99.90;;;;;;5052886;28;20440;-65
2020/12/24 02:11:01;;;;;;;9.30;8.50;;;9.70;99.90;;;;;;5052435;28;20997;-66
2020/12/24 02:13:29;;;;;;;9.03;8.43;;;9.70;99.90;;;;;;5052906;28;20445;-67
2020/12/24 02:15:55;;;;;;;11.00;9.33;;;9.80;99.90;;;;;;5052547;28;20982;-66
2020/12/24 02:18:21;;;;;;;11.33;10.13;;;9.80;99.90;;;;;;5052691;28;20444;-66
2020/12/24 02:20:48;;;;;;;9.73;8.83;;;9.80;99.90;;;;;;5052455;28;20455;-66
2020/12/24 02:23:15;;;;;;;9.70;8.60;;;9.90;99.90;;;;;;5052473;28;20456;-66
2020/12/24 02:25:41;;;;;;;10.10;9.37;;;9.90;99.90;;;;;;5052423;28;20484;-69
2020/12/24 02:28:08;;;;;;;9.97;9.27;;;9.90;99.90;;;;;;5052549;28;20467;-68
2020/12/24 02:30:34;;;;;;;9.57;8.97;;;9.90;99.90;;;;;;5052224;28;20502;-66
2020/12/24 02:33:01;;;;;;;10.97;9.83;;;9.90;99.90;;;;;;5052366;28;20444;-67
2020/12/24 02:35:27;;;;;;;10.17;9.20;;;9.90;99.90;;;;;;5052767;28;20490;-68
2020/12/24 02:37:55;;;;;;;9.47;8.97;;;9.90;99.90;;;;;;5052380;28;20440;-68
2020/12/24 02:40:21;;;;;;;11.00;10.03;;;9.90;99.90;;;;;;5051103;28;20440;-68
2020/12/24 02:42:47;;;;;;;9.80;9.20;;;9.90;99.90;;;;;;5052171;28;20514;-68
2020/12/24 02:45:13;;;;;;;9.57;8.77;;;9.90;99.90;;;;;;5052134;28;20455;-66
2020/12/24 02:47:40;;;;;;;9.63;9.03;;;9.90;99.90;;;;;;5052188;28;20448;-68
2020/12/24 02:50:09;;;;;;;9.97;9.37;;;9.90;99.90;;;;;;5051761;28;20529;-68
2020/12/24 02:52:36;;;;;;;10.50;9.40;;;9.90;99.90;;;;;;5052064;28;20444;-67
2020/12/24 02:55:04;;;;;;;9.43;9.03;;;9.80;99.90;;;;;;5051969;28;20445;-68
2020/12/24 02:57:30;;;;;;;9.93;9.33;;;9.80;99.90;;;;;;5051877;28;20440;-69
2020/12/24 02:59:56;;;;;;;9.03;8.60;;;9.80;99.90;;;;;;5051855;28;20436;-68
2020/12/24 03:02:22;;;;;;;10.67;9.97;;;9.80;99.90;;;;;;5051724;28;20443;-68
2020/12/24 03:04:49;;;;;;;10.50;9.40;;;9.80;99.90;;;;;;5051810;28;20444;-68
2020/12/24 03:07:15;;;;;;;10.27;9.23;;;9.70;99.90;;;;;;5051816;28;20464;-68
2020/12/24 03:09:41;;;;;;;9.97;9.37;;;9.70;99.90;;;;;;5051668;28;20480;-68
2020/12/24 03:12:10;;;;;;;10.17;9.47;;;9.60;99.90;;;;;;5051570;28;20444;-66
2020/12/24 03:14:37;;;;;;;10.73;9.30;;;9.50;99.90;;;;;;5051870;28;20529;-68
2020/12/24 03:17:03;;;;;;;11.20;10.50;;;9.50;99.90;;;;;;5051774;28;20464;-68
2020/12/24 03:19:29;;;;;;;9.50;8.90;;;9.50;99.90;;;;;;5051561;28;20440;-69
2020/12/24 03:21:56;;;;;;;9.33;8.73;;;9.50;99.90;;;;;;5051476;28;20440;-67
2020/12/24 03:24:22;;;;;;;9.60;8.83;;;9.50;99.90;;;;;;5051567;28;20448;-68
2020/12/24 03:26:48;;;;;;;9.40;9.00;;;9.50;99.90;;;;;;5051340;28;20476;-67
2020/12/24 03:29:15;;;;;;;9.93;8.97;;;9.40;99.90;;;;;;5051591;28;20451;-67
2020/12/24 03:31:41;;;;;;;10.20;9.73;;;9.50;99.90;;;;;;5051323;28;20448;-68
2020/12/24 03:34:08;;;;;;;9.20;8.40;;;9.50;99.90;;;;;;5051497;28;20447;-68
2020/12/24 03:36:34;;;;;;;11.20;9.53;;;9.50;99.90;;;;;;5051384;28;21349;-69
2020/12/24 03:39:00;;;;;;;9.50;8.80;;;9.40;99.90;;;;;;5051512;28;20448;-66
2020/12/24 03:41:26;;;;;;;9.07;8.40;;;9.50;99.90;;;;;;5051230;28;20948;-67
2020/12/24 03:43:52;;;;;;;9.13;8.73;;;9.40;99.90;;;;;;5051453;28;20444;-67
2020/12/24 03:46:19;;;;;;;10.23;9.03;;;9.50;99.90;;;;;;5051293;28;20498;-67
2020/12/24 03:48:46;;;;;;;9.53;8.90;;;9.40;99.90;;;;;;5051437;28;20494;-68
2020/12/24 03:51:12;;;;;;;12.37;8.67;;;9.40;99.90;;;;;;5051413;28;20522;-69
2020/12/24 03:53:38;;;;;;;8.90;8.50;;;9.40;99.90;;;;;;5055476;28;20455;-69
2020/12/24 03:56:04;;;;;;;9.63;8.73;;;9.40;99.90;;;;;;5055331;28;20466;-69
2020/12/24 03:58:31;;;;;;;9.47;8.97;;;9.40;99.90;;;;;;5055292;28;20436;-67
2020/12/24 04:00:57;;;;;;;9.03;8.50;;;9.40;99.90;;;;;;5055005;28;20440;-67
2020/12/24 04:03:24;;;;;;;15.37;8.43;;;9.40;99.90;;;;;;5055418;28;20801;-67
2020/12/24 04:05:50;;;;;;;8.43;7.60;;;9.30;99.90;;;;;;5055116;28;20513;-68
2020/12/24 04:08:17;;;;;;;9.37;7.70;;;9.20;99.90;;;;;;5055051;28;20447;-68
2020/12/24 04:10:43;;;;;;;7.90;7.33;;;9.20;99.90;;;;;;5054906;28;20479;-66
2020/12/24 04:13:09;;;;;;;8.23;7.53;;;9.10;99.90;;;;;;5054987;28;20796;-68
2020/12/24 04:15:35;;;;;;;12.37;7.30;;;9.10;99.90;;;;;;5054866;28;20525;-68
2020/12/24 04:18:02;;;;;;;18.33;9.07;;;9.00;99.90;;;;;;5055041;28;20440;-67
2020/12/24 04:20:29;;;;;;;8.10;6.97;;;9.00;99.90;;;;;;5054707;28;20852;-68
2020/12/24 04:22:55;;;;;;;8.40;6.80;;;9.00;99.90;;;;;;5054910;28;20447;-67
2020/12/24 04:25:21;;;;;;;6.50;5.83;;;9.00;99.90;;;;;;5054739;28;20462;-68
2020/12/24 04:27:47;;;;;;;13.53;6.60;;;9.00;99.90;;;;;;5054655;28;20506;-67
2020/12/24 04:30:14;;;;;;;9.57;6.23;;;8.90;99.90;;;;;;5054353;28;20486;-67
2020/12/24 04:32:40;;;;;;;6.50;6.03;;;8.80;99.90;;;;;;5054645;28;20937;-68
2020/12/24 04:35:06;;;;;;;8.00;6.30;;;8.80;99.90;;;;;;5054572;28;20474;-68
2020/12/24 04:37:33;;;;;;;7.33;5.80;;;8.70;99.90;;;;;;5054480;28;20440;-68
2020/12/24 04:40:00;;;;;;;5.87;5.37;;;8.70;99.90;;;;;;5054381;28;20501;-68
2020/12/24 04:42:27;;;;;;;7.50;5.53;;;8.70;99.90;;;;;;5054412;28;20444;-66
2020/12/24 04:44:53;;;;;;;6.00;4.53;;;8.80;99.90;;;;;;5054462;28;20448;-67
2020/12/24 04:47:21;;;;;;;7.63;4.53;;;8.80;99.90;;;;;;5054390;28;20456;-67
2020/12/24 04:49:48;;;;;;;5.27;4.17;;;8.80;99.90;;;;;;5054167;28;20850;-68
2020/12/24 04:52:14;;;;;;;3.97;3.67;;;8.70;99.90;;;;;;5054176;28;20452;-66
2020/12/24 04:54:42;;;;;;;8.63;4.10;;;8.70;99.90;;;;;;5054283;28;20448;-67
2020/12/24 04:57:09;;;;;;;4.73;3.53;;;8.70;99.90;;;;;;5054044;28;20468;-67
2020/12/24 04:59:36;;;;;;;6.10;3.87;;;8.70;99.90;;;;;;5054005;28;20957;-65
2020/12/24 05:02:03;;;;;;;7.07;3.70;;;8.60;99.90;;;;;;5053952;28;20444;-65
2020/12/24 05:04:30;;;;;;;5.70;3.83;;;8.70;99.90;;;;;;5052812;28;20444;-66
2020/12/24 05:07:04;;;;;;;4.50;3.63;;;8.60;99.90;;;;;;5053891;28;20480;-65
2020/12/24 05:09:31;;;;;;;4.20;2.57;;;8.60;99.90;;;;;;5053757;28;20490;-66
2020/12/24 05:11:58;;;;;;;6.40;3.00;;;8.60;99.90;;;;;;5053795;28;20513;-64
2020/12/24 05:14:26;;;;;;;6.30;3.40;;;8.60;99.90;;;;;;5053857;28;20444;-65
2020/12/24 05:17:00;;;;;;;5.30;2.97;;;8.60;99.90;;;;;;5053700;28;21291;-65
2020/12/24 05:19:28;;;;;;;3.30;2.70;;;8.50;99.90;;;;;;5053701;28;20443;-65
2020/12/24 05:21:55;;;;;;;5.10;2.87;;;8.50;99.90;;;;;;5053628;28;20448;-66
2020/12/24 05:24:23;;;;;;;5.00;3.87;;;8.50;99.90;;;;;;5053667;28;20934;-67
2020/12/24 05:26:50;;;;;;;3.23;2.97;;;8.50;99.90;;;;;;5053492;28;20479;-66
2020/12/24 05:29:17;;;;;;;4.60;3.03;;;8.60;99.90;;;;;;5053590;28;20444;-65
2020/12/24 05:31:43;;;;;;;7.17;3.20;;;8.50;99.90;;;;;;5053463;28;20440;-66
2020/12/24 05:34:18;;;;;;;4.40;3.63;;;8.60;99.90;;;;;;5053595;28;20444;-66
2020/12/24 05:36:45;;;;;;;7.57;4.00;;;8.60;99.90;;;;;;5053534;28;20464;-66
2020/12/24 05:39:11;;;;;;;6.90;3.90;;;8.60;99.90;;;;;;5053367;28;20904;-67
2020/12/24 05:41:38;;;;;;;9.40;3.20;;;8.60;99.90;;;;;;5053093;28;20474;-66
2020/12/24 05:44:07;;;;;;;9.17;3.33;;;8.50;99.90;;;;;;5053261;28;20447;-66
2020/12/24 05:46:41;;;;;;;6.77;4.03;;;8.50;99.90;;;;;;5053083;28;20468;-65
2020/12/24 05:49:12;;;;;;;8.00;2.90;;;8.50;99.90;;;;;;5053448;28;20508;-67
2020/12/24 05:51:39;;;;;;;4.50;3.23;;;8.50;99.90;;;;;;5052906;28;20482;-66
2020/12/24 05:54:06;;;;;;;11.73;3.23;;;8.50;99.90;;;;;;5053143;28;20443;-65
2020/12/24 05:56:36;;;;;;;6.27;3.20;;;8.50;99.90;;;;;;5052913;28;20476;-66
2020/12/24 05:59:04;;;;;;;5.63;3.73;;;8.40;99.90;;;;;;5052980;28;20478;-67
2020/12/24 06:01:38;;;;;;;4.10;2.87;;;8.50;99.90;;;;;;5052696;28;20436;-65
2020/12/24 06:04:07;;;;;;;4.73;3.13;;;8.50;99.90;;;;;;5052998;28;20448;-66
2020/12/24 06:06:44;;;;;;;9.07;3.33;;;8.50;99.90;;;;;;5052759;28;20521;-65
2020/12/24 06:09:13;;;;;;;3.37;3.10;;;8.50;99.90;;;;;;5052742;28;20470;-66
2020/12/24 06:11:45;;;;;;;5.20;3.40;;;8.50;99.90;;;;;;5052486;28;20483;-65
2020/12/24 06:14:15;;;;;;;4.53;3.47;;;8.50;99.90;;;;;;5052395;28;20787;-65
2020/12/24 06:16:45;;;;;;;3.10;2.80;;;8.50;99.90;;;;;;5052758;28;20591;-66
2020/12/24 06:19:14;;;;;;;5.47;3.20;;;8.50;99.90;;;;;;5052724;28;20467;-66
2020/12/24 06:21:42;;;;;;;4.87;3.00;;;8.50;99.90;;;;;;5052393;28;20447;-65
2020/12/24 06:24:10;;;;;;;4.10;2.97;;;8.50;99.90;;;;;;5052577;28;20448;-66
2020/12/24 06:26:41;;;;;;;6.33;3.30;;;8.50;99.90;;;;;;5052189;28;20480;-65
2020/12/24 06:29:09;;;;;;;6.80;3.30;;;8.40;99.90;;;;;;5052464;28;20570;-64
2020/12/24 06:31:41;;;;;;;3.90;3.50;;;8.40;99.90;;;;;;5052261;28;20480;-65
2020/12/24 06:34:22;;;;;;;3.37;3.10;;;8.50;99.90;;;;;;5052307;28;21235;-65
2020/12/24 06:36:48;;;;;;;5.43;3.20;;;8.50;99.90;;;;;;5052273;28;20472;-65
2020/12/24 06:39:35;;;;;;;3.03;2.93;;;8.60;99.90;;;;;;5052449;28;20444;-64
2020/12/24 06:42:01;;;;;;;3.50;3.20;;;8.60;99.90;;;;;;5051932;28;20468;-66
2020/12/24 06:44:46;;;;;;;4.00;3.20;;;8.60;99.90;;;;;;5052241;28;20448;-66
2020/12/24 06:47:15;;;;;;;4.90;3.30;;;8.60;99.90;;;;;;5052168;28;20965;-65
2020/12/24 06:49:43;;;;;;;4.63;4.23;;;8.60;99.90;;;;;;5051825;28;20483;-65
2020/12/24 06:52:10;;;;;;;3.97;3.57;;;8.70;99.90;;;;;;5051962;28;20440;-65
2020/12/24 06:54:38;;;;;;;3.73;3.50;;;8.70;99.90;;;;;;5051906;28;20448;-65
2020/12/24 06:57:21;;;;;;;4.50;3.50;;;8.70;99.90;;;;;;5051861;28;20467;-67
2020/12/24 06:59:49;;;;;;;4.57;3.53;;;8.70;99.90;;;;;;5051728;28;20474;-67
2020/12/24 07:02:24;;;;;;;3.53;3.20;;;8.70;99.90;;;;;;5051773;28;20814;-67
2020/12/24 07:04:51;;;;;;;3.90;3.70;;;8.70;99.90;;;;;;5051846;28;20956;-68
2020/12/24 07:07:42;;;;;;;4.47;4.07;;;8.70;99.90;;;;;;5051997;28;20464;-66
2020/12/24 07:10:08;;;;;;;4.80;4.40;;;8.70;99.90;;;;;;5051487;28;20487;-66
2020/12/24 07:12:35;;;;;;;7.60;4.00;;;8.70;99.90;;;;;;5051698;28;20847;-65
2020/12/24 07:15:24;;;;;;;4.17;3.87;;;8.70;99.90;;;;;;5051723;28;20444;-65
2020/12/24 07:17:55;;;;;;;4.40;3.60;;;8.70;99.90;;;;;;5051396;28;20469;-65
2020/12/24 07:20:25;;;;;;;4.03;3.80;;;8.70;99.90;;;;;;5051544;28;20440;-67
2020/12/24 07:22:54;;;;;;;4.30;4.00;;;8.70;99.90;;;;;;5051530;28;20444;-67
2020/12/24 07:25:22;;;;;;;5.03;4.53;;;8.70;99.90;;;;;;5051114;28;20451;-66
2020/12/24 07:27:50;;;;;;;4.00;3.90;;;8.70;99.90;;;;;;5050894;28;21388;-68
2020/12/24 07:30:19;;;;;;;4.00;3.90;;;8.70;99.90;;;;;;5051159;28;20995;-64
2020/12/24 07:32:55;;;;;;;4.57;4.13;;;8.70;99.90;;;;;;5051521;28;20479;-64
2020/12/24 07:35:23;;;;;;;4.03;3.73;;;8.70;99.90;;;;;;5051524;28;20448;-67
2020/12/24 07:37:50;;;;;;;4.77;4.17;;;8.70;99.90;;;;;;5051419;28;20455;-65
2020/12/24 07:40:17;;;;;;;3.93;3.80;;;8.70;99.90;;;;;;5051202;28;20448;-67
2020/12/24 07:42:43;;;;;;;10.60;5.27;;;8.70;99.90;;;;;;5051437;28;20444;-67
2020/12/24 07:45:12;;;;;;;5.43;4.90;;;8.70;99.90;;;;;;5051317;28;20440;-66
2020/12/24 07:47:44;;;;;;;5.30;3.70;;;8.70;99.90;;;;;;5051680;28;20452;-67
2020/12/24 07:50:10;;;;;;;6.83;5.23;;;8.70;99.90;;;;;;5050939;28;20479;-67
2020/12/24 07:52:48;;;;;;;4.63;4.07;;;8.70;99.90;;;;;;5051267;28;20448;-66
2020/12/24 07:55:14;;;;;;;4.67;4.10;;;8.80;99.90;;;;;;5050981;28;20466;-68
2020/12/24 07:57:41;;;;;;;4.73;4.43;;;8.80;99.90;;;;;;5051441;28;20444;-68
2020/12/24 08:00:07;;;;;;;4.50;4.07;;;8.90;99.90;;;;;;5051143;28;20463;-66
2020/12/24 08:02:33;;;;;;;4.90;4.57;;;8.80;99.90;;;;;;5051349;28;20440;-67
2020/12/24 08:05:00;;;;;;;4.30;4.10;;;8.90;99.90;;;;;;5051190;28;20448;-67
2020/12/24 08:07:26;;;;;;;5.30;4.60;;;8.80;99.90;;;;;;5051091;28;20475;-68
2020/12/24 08:09:53;;;;;;;5.10;4.70;;;8.90;99.90;;;;;;5050831;28;20541;-67
2020/12/24 08:12:21;;;;;;;4.70;4.27;;;8.90;99.90;;;;;;5051024;28;20785;-67
2020/12/24 08:14:47;;;;;;;4.43;4.03;;;8.90;99.90;;;;;;5051068;28;20455;-68
2020/12/24 08:17:20;;;;;;;4.70;4.50;;;8.90;99.90;;;;;;5051012;28;20471;-65
2020/12/24 08:19:53;;;;;;;4.23;4.03;;;8.90;99.90;;;;;;5050806;28;20453;-65
2020/12/24 08:22:23;;;;;;;5.13;4.03;;;9.00;99.90;;;;;;5051131;28;20443;-67
2020/12/24 08:24:54;;;;;;;6.03;5.40;;;9.00;99.90;;;;;;5050933;28;20467;-66
2020/12/24 08:27:21;;;;;;;4.40;4.10;;;9.00;99.90;;;;;;5051002;28;20452;-67
2020/12/24 08:29:48;;;;;;;4.23;3.83;;;9.00;99.90;;;;;;5050736;28;20447;-66
2020/12/24 08:32:16;;;;;;;2.03;1.53;;;9.00;99.90;;;;;;5050848;28;20447;-67
2020/12/24 08:34:42;;;;;;;1.40;1.30;;;8.50;99.90;;;;;;5050181;28;20463;-67
2020/12/24 08:37:09;;;;;;;2.27;2.17;;;7.90;99.90;;;;;;5051161;28;20830;-67
2020/12/24 08:39:35;;;;;;;2.23;2.03;;;7.50;99.90;;;;;;5054420;28;20872;-66
2020/12/24 08:42:03;;;;;;;2.20;2.10;;;7.30;99.90;;;;;;5054499;28;20526;-67
2020/12/24 08:44:30;;;;;;;1.37;1.37;;;7.20;99.90;;;;;;5054476;28;20448;-67
2020/12/24 08:47:04;;;;;;;1.90;1.80;;;6.90;99.90;;;;;;5054275;28;20517;-66
2020/12/24 08:49:31;;;;;;;3.33;2.33;;;6.70;99.90;;;;;;5054387;28;20494;-66
2020/12/24 08:52:11;;;;;;;3.50;3.20;;;6.60;99.90;;;;;;5053650;28;20480;-67
2020/12/24 08:54:38;;;;;;;7.03;3.40;;;6.50;99.90;;;;;;5052432;28;20448;-64
2020/12/24 08:57:13;;;;;;;3.47;3.17;;;6.40;99.90;;;;;;5106876;22;20482;-64
2020/12/24 08:59:41;;;;;;;3.87;3.57;;;6.30;99.90;;;;;;5073797;28;20450;-63
2020/12/24 09:02:07;;;;;;;4.80;4.47;;;6.40;99.90;;;;;;5074060;28;20520;-64
2020/12/24 09:04:33;;;;;;;4.03;3.70;;;6.50;99.90;;;;;;5073713;28;20447;-64
2020/12/24 09:07:00;;;;;;;5.60;5.07;;;6.50;99.90;;;;;;5060423;28;20961;-64
2020/12/24 09:09:26;;;;;;;5.20;4.80;;;6.50;99.90;;;;;;5053923;28;20451;-64
2020/12/24 09:11:59;;;;;;;6.67;6.10;;;6.60;99.90;;;;;;5053536;28;20487;-65
2020/12/24 09:14:28;;;;;;;4.60;4.30;;;6.70;99.90;;;;;;5053966;28;20455;-64
2020/12/24 09:17:01;;;;;;;5.33;4.83;;;6.70;99.90;;;;;;5053583;28;20468;-65
2020/12/24 09:19:27;;;;;;;4.10;3.80;;;6.90;99.90;;;;;;5053662;28;20895;-65
2020/12/24 09:21:55;;;;;;;3.60;3.40;;;6.90;99.90;;;;;;5053450;28;20466;-65
2020/12/24 09:24:22;;;;;;;2.93;2.83;;;7.00;99.90;;;;;;5053871;28;20949;-65
2020/12/24 09:26:49;;;;;;;3.00;2.90;;;7.00;99.90;;;;;;5053281;28;20464;-63
2020/12/24 09:29:17;;;;;;;3.20;3.10;;;7.00;99.90;;;;;;5053572;28;20462;-63
2020/12/24 09:31:52;;;;;;;3.20;3.10;;;7.00;99.90;;;;;;5053417;28;20502;-64
2020/12/24 09:34:19;;;;;;;2.90;2.80;;;7.00;99.90;;;;;;5053407;28;20446;-64
2020/12/24 09:36:47;;;;;;;2.97;2.87;;;6.90;99.90;;;;;;5053419;28;20903;-61
2020/12/24 09:39:13;;;;;;;2.90;2.80;;;6.90;99.90;;;;;;5053317;28;20448;-64
2020/12/24 09:41:41;;;;;;;2.53;2.47;;;6.90;99.90;;;;;;5052990;28;20447;-64
2020/12/24 09:44:07;;;;;;;2.80;2.70;;;6.80;99.90;;;;;;5053578;28;20441;-64
2020/12/24 09:46:34;;;;;;;2.67;2.67;;;6.80;99.90;;;;;;5053069;28;20499;-62
2020/12/24 09:49:00;;;;;;;2.80;2.80;;;6.80;99.90;;;;;;5052636;28;20498;-64
2020/12/24 09:51:27;;;;;;;2.63;2.57;;;6.80;99.90;;;;;;5052906;28;20915;-64
2020/12/24 09:53:53;;;;;;;2.80;2.80;;;6.90;99.90;;;;;;5053175;28;20450;-63
2020/12/24 09:56:19;;;;;;;2.83;2.80;;;6.90;99.90;;;;;;5052941;28;20483;-64
2020/12/24 09:58:46;;;;;;;3.37;3.20;;;6.90;99.90;;;;;;5053026;28;20444;-64
2020/12/24 10:01:15;;;;;;;2.60;2.60;;;7.00;99.90;;;;;;5052474;28;20440;-63
2020/12/24 10:03:41;;;;;;;2.60;2.60;;;7.10;99.90;;;;;;5053011;28;20455;-64
2020/12/24 10:06:08;;;;;;;2.93;2.83;;;7.10;99.90;;;;;;5053084;28;20997;-64
2020/12/24 10:08:35;;;;;;;3.33;3.23;;;7.20;99.90;;;;;;5052830;28;20501;-64
2020/12/24 10:11:01;;;;;;;3.70;3.63;;;7.20;99.90;;;;;;5052818;28;20992;-64
2020/12/24 10:13:27;;;;;;;3.40;3.40;;;7.30;99.90;;;;;;5052918;28;20451;-64
2020/12/24 10:15:54;;;;;;;3.80;3.70;;;7.40;99.90;;;;;;5052535;28;21064;-65
2020/12/24 10:18:20;;;;;;;4.53;4.43;;;7.50;99.90;;;;;;5052752;28;20440;-65
2020/12/24 10:20:46;;;;;;;4.20;4.10;;;7.50;99.90;;;;;;5052562;28;20490;-65
2020/12/24 10:23:12;;;;;;;4.67;4.57;;;7.60;99.90;;;;;;5052439;28;20440;-65
2020/12/24 10:25:40;;;;;;;5.57;5.37;;;7.60;99.90;;;;;;5052506;28;20444;-62
2020/12/24 10:28:06;;;;;;;5.00;4.80;;;7.40;99.90;;;;;;5052631;28;20886;-65
2020/12/24 10:30:33;;;;;;;4.90;4.70;;;7.50;99.90;;;;;;5052053;28;20546;-65
2020/12/24 10:32:59;;;;;;;5.20;5.10;;;7.60;99.90;;;;;;5052327;28;20806;-65
2020/12/24 10:35:25;;;;;;;5.73;5.63;;;7.50;99.90;;;;;;5052299;28;20467;-63
2020/12/24 10:37:51;;;;;;;6.40;6.27;;;7.30;99.90;;;;;;5052170;28;20451;-64
2020/12/24 10:40:18;;;;;;;5.70;5.60;;;7.30;99.90;;;;;;5051989;28;20444;-64
2020/12/24 10:42:46;;;;;;;6.00;5.90;;;7.40;99.90;;;;;;5052221;28;20507;-63
2020/12/24 10:45:12;;;;;;;5.63;5.43;;;7.40;99.90;;;;;;5051998;28;20443;-64
2020/12/24 10:47:39;;;;;;;5.40;5.20;;;7.30;99.90;;;;;;5052135;28;20541;-64
2020/12/24 10:50:06;;;;;;;5.30;5.20;;;7.40;99.90;;;;;;5051815;28;20534;-65
2020/12/24 10:52:32;;;;;;;6.97;6.77;;;7.50;99.90;;;;;;5052120;28;20444;-63
2020/12/24 10:54:59;;;;;;;6.10;6.00;;;7.50;99.90;;;;;;5052175;28;20444;-65
2020/12/24 10:57:25;;;;;;;7.23;6.93;;;7.40;99.90;;;;;;5051886;28;20529;-65
2020/12/24 10:59:52;;;;;;;7.27;7.00;;;7.30;99.90;;;;;;5051854;28;20448;-64
2020/12/24 11:02:18;;;;;;;6.00;5.80;;;7.10;99.90;;;;;;5051244;28;20444;-65
2020/12/24 11:04:44;;;;;;;7.10;6.80;;;7.10;99.90;;;;;;5051858;28;20444;-64
2020/12/24 11:07:11;;;;;;;6.70;6.50;;;7.20;99.90;;;;;;5051858;28;20475;-64
2020/12/24 11:09:37;;;;;;;8.40;8.00;;;7.00;99.90;;;;;;5051834;28;20447;-65
2020/12/24 11:12:04;;;;;;;5.40;5.20;;;6.90;99.90;;;;;;5051639;28;20482;-65
2020/12/24 11:14:30;;;;;;;8.17;7.67;;;6.70;99.90;;;;;;5051721;28;20456;-65
2020/12/24 11:16:59;;;;;;;7.13;6.70;;;6.50;99.90;;;;;;5051613;28;20465;-65
2020/12/24 11:19:25;;;;;;;6.60;6.20;;;6.40;99.90;;;;;;5051817;28;20959;-64
2020/12/24 11:21:52;;;;;;;6.90;6.50;;;6.30;99.90;;;;;;5051316;28;20447;-62
2020/12/24 11:24:18;;;;;;;7.20;6.70;;;6.30;99.90;;;;;;5051651;28;20448;-62
2020/12/24 11:26:46;;;;;;;7.37;6.70;;;6.40;99.90;;;;;;5051499;28;20468;-64
2020/12/24 11:29:12;;;;;;;7.63;7.13;;;6.40;99.90;;;;;;5051526;28;20440;-63
2020/12/24 11:31:39;;;;;;;9.30;8.60;;;6.40;99.90;;;;;;5051300;28;20501;-64
2020/12/24 11:34:07;;;;;;;9.07;8.27;;;6.40;99.90;;;;;;5051420;28;20467;-64
2020/12/24 11:36:33;;;;;;;8.90;8.20;;;6.40;99.90;;;;;;5051411;28;20472;-64
2020/12/24 11:39:00;;;;;;;14.90;12.67;;;6.20;99.90;;;;;;5051500;28;20444;-64
2020/12/24 11:41:28;;;;;;;11.13;10.03;;;6.30;99.90;;;;;;5051293;28;20440;-64
2020/12/24 11:43:55;;;;;;;13.17;11.70;;;6.40;99.90;;;;;;5051384;28;20812;-63
2020/12/24 11:46:23;;;;;;;16.67;14.97;;;6.40;99.90;;;;;;5051351;28;20468;-64
2020/12/24 11:48:50;;;;;;;14.50;13.00;;;6.30;99.90;;;;;;5051469;28;20813;-64
2020/12/24 11:51:18;;;;;;;13.00;11.70;;;6.30;99.90;;;;;;5051139;28;20996;-64
2020/12/24 11:53:45;;;;;;;13.80;11.43;;;6.30;99.90;;;;;;5051309;28;20447;-64
2020/12/24 11:56:16;;;;;;;14.23;12.20;;;6.20;99.90;;;;;;5051190;28;20471;-64
2020/12/24 11:58:43;;;;;;;11.00;9.87;;;6.10;99.90;;;;;;5051299;28;20447;-62
2020/12/24 12:01:09;;;;;;;11.10;10.03;;;6.00;99.90;;;;;;5050920;28;20470;-63
2020/12/24 12:03:36;;;;;;;9.27;8.40;;;5.90;99.90;;;;;;5051321;28;20827;-64
2020/12/24 12:06:04;;;;;;;8.50;7.80;;;5.90;99.90;;;;;;5050994;28;20490;-64
2020/12/24 12:08:31;;;;;;;7.70;7.10;;;5.90;99.90;;;;;;5051078;28;20855;-64
2020/12/24 12:11:00;;;;;;;6.57;5.63;;;5.80;99.90;;;;;;5050661;28;20479;-65
2020/12/24 12:13:27;;;;;;;4.70;4.40;;;5.80;99.90;;;;;;5053585;28;20451;-63
2020/12/24 12:15:53;;;;;;;4.10;3.90;;;5.80;99.90;;;;;;5054803;28;20455;-64
2020/12/24 12:18:19;;;;;;;5.20;4.60;;;5.80;99.90;;;;;;5054626;28;20451;-65
2020/12/24 12:20:45;;;;;;;4.50;4.20;;;5.70;99.90;;;;;;5054549;28;20473;-63
2020/12/24 12:23:12;;;;;;;4.97;4.40;;;5.70;99.90;;;;;;5054857;28;20451;-65
2020/12/24 12:25:39;;;;;;;5.07;3.60;;;5.70;99.90;;;;;;5054607;28;20517;-64
2020/12/24 12:28:05;;;;;;;3.93;3.63;;;5.80;99.90;;;;;;5054804;28;20494;-64
2020/12/24 12:30:31;;;;;;;5.00;4.60;;;5.90;99.90;;;;;;5059500;28;20501;-64
2020/12/24 12:32:58;;;;;;;4.23;3.93;;;6.00;99.90;;;;;;5054745;28;20447;-64
2020/12/24 12:35:25;;;;;;;4.20;3.90;;;6.00;99.90;;;;;;5054543;28;20440;-64
2020/12/24 12:37:51;;;;;;;4.10;3.80;;;6.00;99.90;;;;;;5055058;28;20501;-64
2020/12/24 12:40:17;;;;;;;4.27;3.93;;;6.00;99.90;;;;;;5054572;28;20440;-64
2020/12/24 12:42:44;;;;;;;3.43;3.20;;;6.00;99.90;;;;;;5054972;28;20501;-64
2020/12/24 12:45:11;;;;;;;3.60;3.40;;;6.00;99.90;;;;;;5054972;28;20448;-64
2020/12/24 12:47:38;;;;;;;4.47;4.17;;;6.00;99.90;;;;;;5054564;28;20999;-65
2020/12/24 12:50:06;;;;;;;3.90;3.60;;;6.00;99.90;;;;;;5074050;28;20742;-64
2020/12/24 12:52:32;;;;;;;4.70;4.30;;;6.00;99.90;;;;;;5074444;28;20928;-64
2020/12/24 12:54:58;;;;;;;4.13;3.83;;;5.90;99.90;;;;;;5073869;28;20932;-64
2020/12/24 12:57:24;;;;;;;3.90;3.70;;;6.00;99.90;;;;;;5074036;28;20532;-64